Maraba, Brazil
Current Conditions -  °F | °C
As of 5:00 AM on Friday 19 Dec 2014 (Local Time) from SBMA Reporting Station
Clear Clear  
Wind Chill: 75°   Ceiling: Unl
Heat Index: 75°   Visibility: 6mi
Dew Point: 75°   Wind: 1mph
Humidity: 100%   Direction: 360°N
Pressure: 29.83"   Gusts: NA
Location:  5.34°S, 49.13°W
Report Text: SBMA 190800Z 36001KT CAVOK 24/24 Q1010
Loading
Personal Weather Stations






























Interactive Weather Map New forecast layout! Learn more

10-Day Weather Forecast

Advertisements
Track Severe Weather on mobile